Time;durP1;ratioP1;P1;durP2;ratioP2;P2;SDS_P1;SDS_P2;PMS_P1;PMS_P2;Temp;Humidity;BMP_temperature;BMP_pressure;BME280_temperature;BME280_humidity;BME280_pressure;Samples;Min_cycle;Max_cycle;Signal;HPM_P1;HPM_P2
2021/12/20 00:01:45;;;;;;;7.93;4.97;;;;;;;;;;5072145;28;20176;-57
2021/12/20 00:04:11;;;;;;;8.27;4.80;;;;;;;;;;5041042;28;20552;-57
2021/12/20 00:06:37;;;;;;;7.73;4.90;;;;;;;;;;5060956;28;20194;-57
2021/12/20 00:09:07;;;;;;;6.63;4.50;;;;;;;;;;5056579;28;20180;-57
2021/12/20 00:11:33;;;;;;;9.13;5.00;;;;;;;;;;5045238;28;20214;-58
2021/12/20 00:13:59;;;;;;;7.23;3.97;;;;;;;;;;5054256;28;20222;-57
2021/12/20 00:16:25;;;;;;;5.87;4.87;;;;;;;;;;5074914;28;20647;-57
2021/12/20 00:18:52;;;;;;;5.77;4.03;;;;;;;;;;5054368;28;20171;-58
2021/12/20 00:21:22;;;;;;;6.43;4.50;;;;;;;;;;5038785;28;20264;-57
2021/12/20 00:23:48;;;;;;;6.23;4.17;;;;;;;;;;5059036;28;20211;-57
2021/12/20 00:26:15;;;;;;;6.73;4.50;;;;;;;;;;5047871;28;20188;-58
2021/12/20 00:28:41;;;;;;;5.73;3.93;;;;;;;;;;5071527;28;20177;-57
2021/12/20 00:31:07;;;;;;;6.47;4.20;;;;;;;;;;5029866;28;20204;-58
2021/12/20 00:33:37;;;;;;;5.73;4.13;;;;;;;;;;5067280;28;20575;-57
2021/12/20 00:36:08;;;;;;;8.60;4.13;;;;;;;;;;5063071;28;20181;-57
2021/12/20 00:41:20;;;;;;;6.47;4.27;;;;;;;;;;5061395;28;20286;-57
2021/12/20 00:43:46;;;;;;;8.40;4.40;;;;;;;;;;5054669;28;20690;-57
2021/12/20 00:46:12;;;;;;;6.13;4.33;;;;;;;;;;5069394;28;20685;-57
2021/12/20 00:48:38;;;;;;;7.13;3.73;;;;;;;;;;5075102;28;20183;-57
2021/12/20 00:51:05;;;;;;;7.80;4.13;;;;;;;;;;5064060;28;20713;-57
2021/12/20 00:53:51;;;;;;;6.63;3.47;;;;;;;;;;5049385;28;20233;-56
2021/12/20 00:56:21;;;;;;;5.63;3.70;;;;;;;;;;5047624;28;20211;-57
2021/12/20 00:58:47;;;;;;;4.77;3.20;;;;;;;;;;5050064;28;20552;-57
2021/12/20 01:01:14;;;;;;;5.60;3.77;;;;;;;;;;5046114;28;20220;-57
2021/12/20 01:03:40;;;;;;;6.43;3.83;;;;;;;;;;5034108;28;20184;-57
2021/12/20 01:06:07;;;;;;;8.10;4.60;;;;;;;;;;5063601;28;20180;-57
2021/12/20 01:08:36;;;;;;;7.53;3.40;;;;;;;;;;5066118;28;20688;-57
2021/12/20 01:11:03;;;;;;;5.67;3.30;;;;;;;;;;5064975;28;20331;-57
2021/12/20 01:13:31;;;;;;;6.83;3.83;;;;;;;;;;5054939;28;20306;-57
2021/12/20 01:16:00;;;;;;;6.40;3.83;;;;;;;;;;5061154;28;20173;-57
2021/12/20 01:18:27;;;;;;;7.93;4.37;;;;;;;;;;5066307;28;20687;-58
2021/12/20 01:20:53;;;;;;;5.60;3.60;;;;;;;;;;5065591;28;20180;-57
2021/12/20 01:23:20;;;;;;;6.77;3.70;;;;;;;;;;5064103;28;20176;-57
2021/12/20 01:25:46;;;;;;;6.60;3.50;;;;;;;;;;5059456;28;20180;-57
2021/12/20 01:28:13;;;;;;;5.60;3.63;;;;;;;;;;5046690;28;20176;-57
2021/12/20 01:30:41;;;;;;;9.57;3.97;;;;;;;;;;5037877;28;20694;-57
2021/12/20 01:33:08;;;;;;;5.67;3.50;;;;;;;;;;5042672;28;20173;-57
2021/12/20 01:35:35;;;;;;;8.07;3.20;;;;;;;;;;5056639;28;20179;-57
2021/12/20 01:38:01;;;;;;;8.97;3.40;;;;;;;;;;5049621;28;20172;-57
2021/12/20 01:40:28;;;;;;;5.47;3.50;;;;;;;;;;5043232;28;20237;-58
2021/12/20 01:42:58;;;;;;;7.17;3.13;;;;;;;;;;5047661;28;20181;-57
2021/12/20 01:45:26;;;;;;;9.57;4.13;;;;;;;;;;5063480;28;20182;-57
2021/12/20 01:48:03;;;;;;;6.83;3.33;;;;;;;;;;5051981;28;20196;-59
2021/12/20 01:53:23;;;;;;;9.43;3.10;;;;;;;;;;5047188;28;20263;-57
2021/12/20 01:55:50;;;;;;;6.73;3.60;;;;;;;;;;5065941;28;20204;-57
2021/12/20 01:58:17;;;;;;;6.03;3.17;;;;;;;;;;5074075;28;20187;-57
2021/12/20 02:03:29;;;;;;;5.43;2.90;;;;;;;;;;5066181;28;20246;-57
2021/12/20 02:05:58;;;;;;;5.37;2.70;;;;;;;;;;5062611;28;20216;-57
2021/12/20 02:08:28;;;;;;;5.43;3.20;;;;;;;;;;5084974;28;20557;-57
2021/12/20 02:10:56;;;;;;;7.23;3.77;;;;;;;;;;5058915;28;20690;-57
2021/12/20 02:13:24;;;;;;;6.07;3.47;;;;;;;;;;5046423;28;20238;-57
2021/12/20 02:15:51;;;;;;;5.37;2.60;;;;;;;;;;5062779;28;20176;-57
2021/12/20 02:18:17;;;;;;;8.93;3.50;;;;;;;;;;5063070;28;20203;-57
2021/12/20 02:20:43;;;;;;;6.77;3.30;;;;;;;;;;5064849;28;20489;-57
2021/12/20 02:23:10;;;;;;;8.70;3.23;;;;;;;;;;5064235;28;20285;-57
2021/12/20 02:25:37;;;;;;;6.27;2.53;;;;;;;;;;5065040;28;20651;-57
2021/12/20 02:28:08;;;;;;;6.20;2.87;;;;;;;;;;5077985;28;20177;-57
2021/12/20 02:30:43;;;;;;;8.60;2.87;;;;;;;;;;5057695;28;20283;-57
2021/12/20 02:38:26;;;;;;;6.93;3.03;;;;;;;;;;5060861;28;20643;-57
2021/12/20 02:41:01;;;;;;;7.07;3.10;;;;;;;;;;5061744;28;20181;-57
2021/12/20 02:43:35;;;;;;;8.10;2.97;;;;;;;;;;5064228;28;20284;-58
2021/12/20 02:46:06;;;;;;;5.63;2.90;;;;;;;;;;5055601;28;20183;-57
2021/12/20 02:48:33;;;;;;;6.53;3.03;;;;;;;;;;5061584;28;20181;-57
2021/12/20 02:50:59;;;;;;;7.80;2.77;;;;;;;;;;5066766;28;20338;-57
2021/12/20 02:53:25;;;;;;;9.07;3.50;;;;;;;;;;5064275;28;20188;-57
2021/12/20 02:55:51;;;;;;;6.90;3.23;;;;;;;;;;5085046;28;20203;-57
2021/12/20 02:58:18;;;;;;;7.77;3.33;;;;;;;;;;5048947;28;20719;-57
2021/12/20 03:00:44;;;;;;;6.80;3.00;;;;;;;;;;5076961;28;20191;-57
2021/12/20 03:03:11;;;;;;;6.00;2.43;;;;;;;;;;5064949;28;20198;-55
2021/12/20 03:05:37;;;;;;;7.73;2.97;;;;;;;;;;5077931;28;20620;-57
2021/12/20 03:08:05;;;;;;;6.50;2.70;;;;;;;;;;5076892;28;20180;-57
2021/12/20 03:10:33;;;;;;;9.13;3.47;;;;;;;;;;5066635;28;20196;-57
2021/12/20 03:12:59;;;;;;;8.90;3.20;;;;;;;;;;5063106;28;20311;-57
2021/12/20 03:15:27;;;;;;;7.87;3.07;;;;;;;;;;5063458;28;20247;-57
2021/12/20 03:17:57;;;;;;;8.23;3.07;;;;;;;;;;5060333;28;20191;-57
2021/12/20 03:20:23;;;;;;;7.80;3.03;;;;;;;;;;5050998;28;20662;-56
2021/12/20 03:22:50;;;;;;;7.73;2.97;;;;;;;;;;5056238;28;20188;-57
2021/12/20 03:25:17;;;;;;;8.40;3.03;;;;;;;;;;5061434;28;20214;-57
2021/12/20 03:27:44;;;;;;;6.87;3.17;;;;;;;;;;5063033;28;20333;-57
2021/12/20 03:30:11;;;;;;;14.10;2.80;;;;;;;;;;5066650;28;20542;-57
2021/12/20 03:32:37;;;;;;;7.67;3.30;;;;;;;;;;5060536;28;20252;-57
2021/12/20 03:35:05;;;;;;;9.37;3.00;;;;;;;;;;5081583;28;20180;-57
2021/12/20 03:37:31;;;;;;;9.80;3.23;;;;;;;;;;5064459;28;20179;-57
2021/12/20 03:39:58;;;;;;;9.90;3.00;;;;;;;;;;5082908;28;20410;-57
2021/12/20 03:42:27;;;;;;;22.23;2.83;;;;;;;;;;5066323;28;20188;-57
2021/12/20 03:44:53;;;;;;;9.50;3.37;;;;;;;;;;5064761;28;20188;-57
2021/12/20 03:47:20;;;;;;;9.27;2.90;;;;;;;;;;5078342;28;21123;-57
2021/12/20 03:49:49;;;;;;;7.03;3.27;;;;;;;;;;5082838;28;20184;-57
2021/12/20 03:52:16;;;;;;;12.07;3.13;;;;;;;;;;5045234;28;20640;-58
2021/12/20 03:54:45;;;;;;;9.83;2.70;;;;;;;;;;5047627;28;20654;-58
2021/12/20 03:57:11;;;;;;;10.90;2.73;;;;;;;;;;5041398;28;20196;-57
2021/12/20 03:59:38;;;;;;;9.87;2.97;;;;;;;;;;5041656;28;20423;-59
2021/12/20 04:02:06;;;;;;;11.33;2.13;;;;;;;;;;5065411;28;20168;-57
2021/12/20 04:04:32;;;;;;;6.43;2.77;;;;;;;;;;5043746;28;20188;-58
2021/12/20 04:06:59;;;;;;;9.47;2.97;;;;;;;;;;5063396;28;20321;-57
2021/12/20 04:09:25;;;;;;;9.20;2.60;;;;;;;;;;5050532;28;20199;-57
2021/12/20 04:11:51;;;;;;;6.23;2.70;;;;;;;;;;5052780;28;20350;-57
2021/12/20 04:14:17;;;;;;;5.50;2.43;;;;;;;;;;5044527;28;20185;-57
2021/12/20 04:16:44;;;;;;;8.97;3.53;;;;;;;;;;5064916;28;20179;-57
2021/12/20 04:19:10;;;;;;;10.07;3.23;;;;;;;;;;5038052;28;20673;-58
2021/12/20 04:21:40;;;;;;;5.90;2.50;;;;;;;;;;5048454;28;20184;-57
2021/12/20 04:24:06;;;;;;;4.27;2.43;;;;;;;;;;5052501;28;20180;-58
2021/12/20 04:26:33;;;;;;;6.27;2.43;;;;;;;;;;5051154;28;20303;-57
2021/12/20 04:28:59;;;;;;;5.83;2.70;;;;;;;;;;5042989;28;20187;-57
2021/12/20 04:31:25;;;;;;;6.50;2.70;;;;;;;;;;5065097;28;20290;-57
2021/12/20 04:33:51;;;;;;;13.83;3.40;;;;;;;;;;5034844;28;20173;-57
2021/12/20 04:36:18;;;;;;;6.33;2.53;;;;;;;;;;5067154;28;20260;-57
2021/12/20 04:38:44;;;;;;;5.20;1.80;;;;;;;;;;5068436;28;20169;-57
2021/12/20 04:41:14;;;;;;;8.43;2.40;;;;;;;;;;5068080;28;20237;-57
2021/12/20 04:43:40;;;;;;;5.87;2.20;;;;;;;;;;5062881;28;20181;-58
2021/12/20 04:46:07;;;;;;;2.97;2.50;;;;;;;;;;5066030;28;20899;-58
2021/12/20 04:48:33;;;;;;;8.43;2.63;;;;;;;;;;5052687;28;20264;-58
2021/12/20 04:50:59;;;;;;;5.77;2.30;;;;;;;;;;5059357;28;20610;-58
2021/12/20 04:53:26;;;;;;;6.70;2.00;;;;;;;;;;5087202;28;20179;-57
2021/12/20 04:55:52;;;;;;;11.87;3.10;;;;;;;;;;5085302;28;20199;-57
2021/12/20 04:58:18;;;;;;;8.47;2.83;;;;;;;;;;5085468;28;20168;-57
2021/12/20 05:00:45;;;;;;;5.17;2.73;;;;;;;;;;5082434;28;20229;-56
2021/12/20 05:03:11;;;;;;;5.87;2.10;;;;;;;;;;5069021;28;20266;-57
2021/12/20 05:05:37;;;;;;;6.40;2.80;;;;;;;;;;5077801;28;20202;-57
2021/12/20 05:08:05;;;;;;;5.40;2.00;;;;;;;;;;5080754;28;20221;-56
2021/12/20 05:10:37;;;;;;;6.13;2.57;;;;;;;;;;5065832;28;20647;-56
2021/12/20 05:13:05;;;;;;;3.83;3.17;;;;;;;;;;5084384;28;20168;-56
2021/12/20 05:15:38;;;;;;;5.07;2.20;;;;;;;;;;5082301;28;20179;-56
2021/12/20 05:18:08;;;;;;;4.43;2.23;;;;;;;;;;5079974;28;20199;-57
2021/12/20 05:20:35;;;;;;;6.90;2.60;;;;;;;;;;5065558;28;20275;-56
2021/12/20 05:23:02;;;;;;;6.00;2.20;;;;;;;;;;5079391;28;20190;-57
2021/12/20 05:25:28;;;;;;;9.97;2.73;;;;;;;;;;5083666;28;20184;-57
2021/12/20 05:27:55;;;;;;;6.40;2.80;;;;;;;;;;5085081;28;20677;-57
2021/12/20 05:30:21;;;;;;;5.53;2.33;;;;;;;;;;5064142;28;20179;-57
2021/12/20 05:32:51;;;;;;;5.57;2.60;;;;;;;;;;5060522;28;20179;-57
2021/12/20 05:35:19;;;;;;;7.13;3.00;;;;;;;;;;5060391;28;20663;-57
2021/12/20 05:37:45;;;;;;;5.93;2.23;;;;;;;;;;5062056;28;20267;-57
2021/12/20 05:40:12;;;;;;;5.80;2.23;;;;;;;;;;5065091;28;20183;-57
2021/12/20 05:42:39;;;;;;;5.27;1.90;;;;;;;;;;5063782;28;20742;-57
2021/12/20 05:45:07;;;;;;;3.70;2.07;;;;;;;;;;5062336;28;20179;-57
2021/12/20 05:47:33;;;;;;;6.60;2.80;;;;;;;;;;5058705;28;20176;-57
2021/12/20 05:50:01;;;;;;;7.87;2.60;;;;;;;;;;5066391;28;20311;-57
2021/12/20 05:52:27;;;;;;;6.63;2.30;;;;;;;;;;5063324;28;20207;-57
2021/12/20 05:54:54;;;;;;;5.93;2.10;;;;;;;;;;5078054;28;20614;-57
2021/12/20 05:57:20;;;;;;;6.07;2.60;;;;;;;;;;5078592;28;20283;-57
2021/12/20 05:59:46;;;;;;;10.43;2.13;;;;;;;;;;5062038;28;20532;-57
2021/12/20 06:02:13;;;;;;;5.30;2.47;;;;;;;;;;5084492;28;20176;-57
2021/12/20 06:04:39;;;;;;;7.00;2.43;;;;;;;;;;5087591;28;20203;-57
2021/12/20 06:07:08;;;;;;;8.50;2.47;;;;;;;;;;5066098;28;20300;-56
2021/12/20 06:09:34;;;;;;;8.20;2.70;;;;;;;;;;5085392;28;20539;-58
2021/12/20 06:12:01;;;;;;;4.60;2.50;;;;;;;;;;5083528;28;20205;-57
2021/12/20 06:14:28;;;;;;;4.10;2.27;;;;;;;;;;5063953;28;20552;-57
2021/12/20 06:16:55;;;;;;;7.53;2.93;;;;;;;;;;5065410;28;20168;-57
2021/12/20 06:19:23;;;;;;;7.97;2.90;;;;;;;;;;5083073;28;20458;-57
2021/12/20 06:21:50;;;;;;;5.97;2.10;;;;;;;;;;5067424;28;20172;-57
2021/12/20 06:24:16;;;;;;;5.50;2.20;;;;;;;;;;5066281;28;20176;-56
2021/12/20 06:26:42;;;;;;;5.87;2.43;;;;;;;;;;5067141;28;20180;-57
2021/12/20 06:29:09;;;;;;;4.30;2.07;;;;;;;;;;5053721;28;20188;-57
2021/12/20 06:31:35;;;;;;;7.50;2.63;;;;;;;;;;5066002;28;20227;-57
2021/12/20 06:34:01;;;;;;;6.03;2.10;;;;;;;;;;5085462;28;20172;-56
2021/12/20 06:36:31;;;;;;;5.23;2.10;;;;;;;;;;5069294;28;20184;-56
2021/12/20 06:38:58;;;;;;;8.70;2.90;;;;;;;;;;5059959;28;20723;-57
2021/12/20 06:41:25;;;;;;;7.53;2.83;;;;;;;;;;5068582;28;20682;-57
2021/12/20 06:43:51;;;;;;;6.83;1.90;;;;;;;;;;5063773;28;20175;-57
2021/12/20 06:46:19;;;;;;;8.87;2.83;;;;;;;;;;5077181;28;20187;-56
2021/12/20 06:48:46;;;;;;;6.43;2.30;;;;;;;;;;5067997;28;20558;-57
2021/12/20 06:51:12;;;;;;;6.03;2.47;;;;;;;;;;5073127;28;20220;-56
2021/12/20 06:53:38;;;;;;;3.97;2.17;;;;;;;;;;5060666;28;20204;-56
2021/12/20 06:56:05;;;;;;;9.80;3.57;;;;;;;;;;5064903;28;20294;-57
2021/12/20 06:58:31;;;;;;;6.10;2.43;;;;;;;;;;5048727;28;20199;-57
2021/12/20 07:00:57;;;;;;;5.67;2.40;;;;;;;;;;5048849;28;20612;-57
2021/12/20 07:03:24;;;;;;;4.40;2.33;;;;;;;;;;5044595;28;20189;-57
2021/12/20 07:05:50;;;;;;;7.70;2.60;;;;;;;;;;5061683;28;20650;-57
2021/12/20 07:08:17;;;;;;;6.27;3.33;;;;;;;;;;5060951;28;20265;-57
2021/12/20 07:10:43;;;;;;;7.40;2.20;;;;;;;;;;5065389;28;20299;-57
2021/12/20 07:13:10;;;;;;;5.73;2.00;;;;;;;;;;5061923;28;20661;-57
2021/12/20 07:15:37;;;;;;;6.27;2.13;;;;;;;;;;5061058;28;20177;-56
2021/12/20 07:18:03;;;;;;;6.80;2.27;;;;;;;;;;5059364;28;20192;-56
2021/12/20 07:20:33;;;;;;;6.87;2.90;;;;;;;;;;5071422;28;20184;-56
2021/12/20 07:22:59;;;;;;;5.07;2.47;;;;;;;;;;5064720;28;20177;-56
2021/12/20 07:25:29;;;;;;;9.60;2.63;;;;;;;;;;5039173;28;20180;-56
2021/12/20 07:27:55;;;;;;;6.07;2.53;;;;;;;;;;5048727;28;20256;-56
2021/12/20 07:30:22;;;;;;;11.27;2.97;;;;;;;;;;5057082;28;20242;-56
2021/12/20 07:32:48;;;;;;;7.87;2.60;;;;;;;;;;5039735;28;20169;-56
2021/12/20 07:35:15;;;;;;;8.50;2.20;;;;;;;;;;5038756;28;20173;-56
2021/12/20 07:37:42;;;;;;;5.43;2.03;;;;;;;;;;5043848;28;20173;-56
2021/12/20 07:40:09;;;;;;;5.70;2.83;;;;;;;;;;5062969;28;20173;-56
2021/12/20 07:42:35;;;;;;;5.83;2.77;;;;;;;;;;5046999;28;20655;-57
2021/12/20 07:45:02;;;;;;;5.47;2.40;;;;;;;;;;5043525;28;20177;-56
2021/12/20 07:47:28;;;;;;;8.77;2.37;;;;;;;;;;5045628;28;20188;-56
2021/12/20 07:49:54;;;;;;;6.13;2.07;;;;;;;;;;5046335;28;20177;-56
2021/12/20 07:52:21;;;;;;;10.07;2.43;;;;;;;;;;5072151;28;20200;-56
2021/12/20 07:54:47;;;;;;;6.30;2.70;;;;;;;;;;5079003;28;20545;-55
2021/12/20 07:57:13;;;;;;;7.27;2.30;;;;;;;;;;5059477;28;20214;-55
2021/12/20 07:59:40;;;;;;;7.20;2.77;;;;;;;;;;5065312;28;20189;-56
2021/12/20 08:02:06;;;;;;;8.17;2.77;;;;;;;;;;5077695;28;20191;-57
2021/12/20 08:04:32;;;;;;;7.60;2.40;;;;;;;;;;5067356;28;20190;-56
2021/12/20 08:06:58;;;;;;;6.03;2.07;;;;;;;;;;5082071;28;20184;-57
2021/12/20 08:09:25;;;;;;;7.70;2.30;;;;;;;;;;5085129;28;20293;-56
2021/12/20 08:11:51;;;;;;;7.13;2.43;;;;;;;;;;5078811;28;20200;-57
2021/12/20 08:14:17;;;;;;;7.57;2.60;;;;;;;;;;5060404;28;20233;-57
2021/12/20 08:16:43;;;;;;;4.57;2.83;;;;;;;;;;5084444;28;20254;-57
2021/12/20 08:19:10;;;;;;;4.50;2.10;;;;;;;;;;5079496;28;20176;-57
2021/12/20 08:21:36;;;;;;;5.77;2.30;;;;;;;;;;5066477;28;20179;-57
2021/12/20 08:24:03;;;;;;;7.73;2.80;;;;;;;;;;5080908;28;20171;-57
2021/12/20 08:26:29;;;;;;;7.50;2.77;;;;;;;;;;5084686;28;20669;-57
2021/12/20 08:28:55;;;;;;;9.53;2.53;;;;;;;;;;5083723;28;20566;-57
2021/12/20 08:31:21;;;;;;;6.60;2.73;;;;;;;;;;5067728;28;20564;-57
2021/12/20 08:33:48;;;;;;;11.17;2.60;;;;;;;;;;5067481;28;20634;-57
2021/12/20 08:36:16;;;;;;;7.20;2.60;;;;;;;;;;5063707;28;20249;-56
2021/12/20 08:38:42;;;;;;;4.33;2.20;;;;;;;;;;5075418;28;20519;-57
2021/12/20 08:41:17;;;;;;;7.37;2.83;;;;;;;;;;5077887;28;20176;-57
2021/12/20 08:43:43;;;;;;;9.33;2.77;;;;;;;;;;5059685;28;20218;-57
2021/12/20 08:46:10;;;;;;;7.13;2.33;;;;;;;;;;5056967;28;20188;-57
2021/12/20 08:48:40;;;;;;;6.90;3.13;;;;;;;;;;5061253;28;20653;-56
2021/12/20 08:51:07;;;;;;;9.87;2.87;;;;;;;;;;5056898;28;20374;-57
2021/12/20 08:53:33;;;;;;;8.00;2.87;;;;;;;;;;5055019;28;20175;-57
2021/12/20 08:55:59;;;;;;;7.07;3.17;;;;;;;;;;5073168;28;20690;-57
2021/12/20 08:58:25;;;;;;;10.23;3.27;;;;;;;;;;5057471;28;20204;-57
2021/12/20 09:00:53;;;;;;;7.40;3.10;;;;;;;;;;5048537;28;20235;-58
2021/12/20 09:03:20;;;;;;;9.17;3.40;;;;;;;;;;5057754;28;20188;-57
2021/12/20 09:05:46;;;;;;;7.67;3.07;;;;;;;;;;5056560;28;20184;-57
2021/12/20 09:08:15;;;;;;;5.77;2.63;;;;;;;;;;5055929;28;20671;-57
2021/12/20 09:10:41;;;;;;;10.77;3.10;;;;;;;;;;5059553;28;20196;-57
2021/12/20 09:13:07;;;;;;;9.83;3.00;;;;;;;;;;5060365;28;20179;-57
2021/12/20 09:15:34;;;;;;;7.47;2.93;;;;;;;;;;5059230;28;20187;-57
2021/12/20 09:18:03;;;;;;;6.87;2.93;;;;;;;;;;5044845;28;20215;-57
2021/12/20 09:20:34;;;;;;;11.83;3.87;;;;;;;;;;5059632;28;20173;-57
2021/12/20 09:23:05;;;;;;;8.67;3.67;;;;;;;;;;5059467;28;20635;-57
2021/12/20 09:25:33;;;;;;;13.20;4.30;;;;;;;;;;5060316;28;20181;-57
2021/12/20 09:27:59;;;;;;;8.53;3.23;;;;;;;;;;5069209;28;20190;-56
2021/12/20 09:30:27;;;;;;;9.30;2.70;;;;;;;;;;5065485;28;20180;-58
2021/12/20 09:32:53;;;;;;;6.93;3.40;;;;;;;;;;5063564;28;20347;-58
2021/12/20 09:35:22;;;;;;;13.23;3.63;;;;;;;;;;5057085;28;20376;-57
2021/12/20 09:37:51;;;;;;;12.87;3.43;;;;;;;;;;5058243;28;20192;-57
2021/12/20 09:40:18;;;;;;;9.63;3.17;;;;;;;;;;5061885;28;20176;-57
2021/12/20 09:42:48;;;;;;;8.57;4.30;;;;;;;;;;5061687;28;20177;-58
2021/12/20 09:45:18;;;;;;;13.57;4.33;;;;;;;;;;5067985;28;20803;-58
2021/12/20 09:47:44;;;;;;;10.37;3.57;;;;;;;;;;5063825;28;20177;-57
2021/12/20 09:50:12;;;;;;;10.33;3.60;;;;;;;;;;5066192;28;20177;-58
2021/12/20 09:52:39;;;;;;;10.57;3.80;;;;;;;;;;5064003;28;20203;-58
2021/12/20 09:55:06;;;;;;;14.33;4.60;;;;;;;;;;5048506;28;20180;-56
2021/12/20 09:57:33;;;;;;;13.20;4.00;;;;;;;;;;5083540;28;20200;-57
2021/12/20 10:00:02;;;;;;;7.70;3.97;;;;;;;;;;5081584;28;20230;-58
2021/12/20 10:02:28;;;;;;;14.03;4.20;;;;;;;;;;5065643;28;20669;-59
2021/12/20 10:04:55;;;;;;;14.13;4.00;;;;;;;;;;5081215;28;20682;-57
2021/12/20 10:07:24;;;;;;;11.93;4.73;;;;;;;;;;5076879;28;20658;-57
2021/12/20 10:09:51;;;;;;;15.77;3.90;;;;;;;;;;5063503;28;20634;-57
2021/12/20 10:12:21;;;;;;;11.93;3.87;;;;;;;;;;5053453;28;20203;-58
2021/12/20 10:14:54;;;;;;;12.40;3.93;;;;;;;;;;5064780;28;20184;-57
2021/12/20 10:17:26;;;;;;;11.60;3.50;;;;;;;;;;5061483;28;20183;-57
2021/12/20 10:19:55;;;;;;;9.70;4.77;;;;;;;;;;5068643;28;20183;-58
2021/12/20 10:22:30;;;;;;;14.40;3.93;;;;;;;;;;5069351;28;20180;-57
2021/12/20 10:25:02;;;;;;;9.83;3.63;;;;;;;;;;5080585;28;20657;-57
2021/12/20 10:27:29;;;;;;;9.80;4.57;;;;;;;;;;5055104;28;20264;-57
2021/12/20 10:29:55;;;;;;;9.63;3.87;;;;;;;;;;5067110;28;20191;-57
2021/12/20 10:32:44;;;;;;;11.37;3.57;;;;;;;;;;5078521;28;20930;-57
2021/12/20 10:35:26;;;;;;;8.73;3.50;;;;;;;;;;5067873;28;20179;-57
2021/12/20 10:37:57;;;;;;;13.70;4.27;;;;;;;;;;5066976;28;20177;-58
2021/12/20 10:40:23;;;;;;;13.73;4.40;;;;;;;;;;5082207;28;20219;-58
2021/12/20 10:42:52;;;;;;;8.53;4.73;;;;;;;;;;5083860;28;20171;-58
2021/12/20 10:45:20;;;;;;;12.07;4.50;;;;;;;;;;5081264;28;20647;-57
2021/12/20 10:47:50;;;;;;;10.13;4.07;;;;;;;;;;5066207;28;20207;-57
2021/12/20 10:50:20;;;;;;;12.13;4.37;;;;;;;;;;5086000;28;20686;-57
2021/12/20 10:52:47;;;;;;;16.47;4.13;;;;;;;;;;5057817;28;20552;-58
2021/12/20 10:55:14;;;;;;;12.33;4.60;;;;;;;;;;5047041;28;20659;-57
2021/12/20 10:57:40;;;;;;;15.93;4.83;;;;;;;;;;5031804;28;20196;-58
2021/12/20 11:00:14;;;;;;;12.50;4.20;;;;;;;;;;5053071;28;20243;-57
2021/12/20 11:03:17;;;;;;;11.57;4.20;;;;;;;;;;5056769;28;20272;-57
2021/12/20 11:06:14;;;;;;;16.90;5.03;;;;;;;;;;5059605;28;20631;-58
2021/12/20 11:11:28;;;;;;;10.60;3.80;;;;;;;;;;5061217;28;20588;-57
2021/12/20 11:13:55;;;;;;;12.57;4.77;;;;;;;;;;5061568;28;20649;-56
2021/12/20 11:16:26;;;;;;;7.47;3.63;;;;;;;;;;5063160;28;20176;-56
2021/12/20 11:19:08;;;;;;;10.67;4.03;;;;;;;;;;5067779;28;20175;-57
2021/12/20 11:21:37;;;;;;;13.70;5.00;;;;;;;;;;5050003;28;20188;-57
2021/12/20 11:24:04;;;;;;;11.93;4.43;;;;;;;;;;5052738;28;20272;-57
2021/12/20 11:26:31;;;;;;;14.80;4.17;;;;;;;;;;5051640;28;20177;-57
2021/12/20 11:28:57;;;;;;;8.07;4.90;;;;;;;;;;5051250;28;20184;-57
2021/12/20 11:31:24;;;;;;;9.73;3.83;;;;;;;;;;5074423;28;21001;-56
2021/12/20 11:33:51;;;;;;;12.73;4.07;;;;;;;;;;5039122;28;20276;-57
2021/12/20 11:36:18;;;;;;;15.47;4.87;;;;;;;;;;5039452;28;20546;-57
2021/12/20 11:38:44;;;;;;;7.30;3.53;;;;;;;;;;5056872;28;20721;-57
2021/12/20 11:41:11;;;;;;;14.97;4.37;;;;;;;;;;5056986;28;20180;-57
2021/12/20 11:43:38;;;;;;;10.87;4.20;;;;;;;;;;5057099;28;20231;-57
2021/12/20 11:46:05;;;;;;;8.77;3.47;;;;;;;;;;5036355;28;20566;-57
2021/12/20 11:48:32;;;;;;;10.90;3.63;;;;;;;;;;5064977;28;20192;-57
2021/12/20 11:51:03;;;;;;;7.43;3.73;;;;;;;;;;5057346;28;20268;-57
2021/12/20 11:53:35;;;;;;;10.77;4.30;;;;;;;;;;5054833;28;20267;-57
2021/12/20 11:56:03;;;;;;;9.23;4.27;;;;;;;;;;5066201;28;20398;-57
2021/12/20 11:58:30;;;;;;;9.37;3.77;;;;;;;;;;5061751;28;20186;-57
2021/12/20 12:01:01;;;;;;;10.83;3.97;;;;;;;;;;5036568;28;20188;-56
2021/12/20 12:03:29;;;;;;;10.67;4.00;;;;;;;;;;5038670;28;20192;-57
2021/12/20 12:05:56;;;;;;;10.20;4.13;;;;;;;;;;5056494;28;20187;-57
2021/12/20 12:08:24;;;;;;;7.57;3.50;;;;;;;;;;5063420;28;20678;-56
2021/12/20 12:10:50;;;;;;;14.30;3.60;;;;;;;;;;5068181;28;20196;-56
2021/12/20 12:13:18;;;;;;;8.03;2.83;;;;;;;;;;5067846;28;20655;-57
2021/12/20 12:16:02;;;;;;;8.60;4.10;;;;;;;;;;5044855;28;20377;-57
2021/12/20 12:18:45;;;;;;;6.97;2.63;;;;;;;;;;5041520;28;20255;-57
2021/12/20 12:21:30;;;;;;;10.30;3.20;;;;;;;;;;5036217;28;20590;-56
2021/12/20 12:23:56;;;;;;;7.97;3.50;;;;;;;;;;5036880;28;20677;-57
2021/12/20 12:26:50;;;;;;;7.60;2.87;;;;;;;;;;5060031;28;20263;-57
2021/12/20 12:29:18;;;;;;;8.87;2.90;;;;;;;;;;5061032;28;20199;-57
2021/12/20 12:31:50;;;;;;;8.60;3.30;;;;;;;;;;5044989;28;20212;-57
2021/12/20 12:34:17;;;;;;;7.30;3.00;;;;;;;;;;5062836;28;20710;-57
2021/12/20 12:36:44;;;;;;;6.47;2.70;;;;;;;;;;5046369;28;20263;-57
2021/12/20 12:39:14;;;;;;;5.33;3.00;;;;;;;;;;5065417;28;20604;-57
2021/12/20 12:41:48;;;;;;;6.70;2.20;;;;;;;;;;5046728;28;20184;-57
2021/12/20 12:44:17;;;;;;;9.30;2.40;;;;;;;;;;5072963;28;20211;-57
2021/12/20 12:46:47;;;;;;;6.30;2.43;;;;;;;;;;5062835;28;20180;-57
2021/12/20 12:49:22;;;;;;;5.23;2.17;;;;;;;;;;5063400;28;20184;-57
2021/12/20 12:51:59;;;;;;;4.50;2.67;;;;;;;;;;5084876;28;20310;-57
2021/12/20 12:54:35;;;;;;;6.77;2.37;;;;;;;;;;5090326;28;20175;-57
2021/12/20 12:57:10;;;;;;;6.17;2.93;;;;;;;;;;5072853;28;20666;-57
2021/12/20 12:59:42;;;;;;;7.77;2.23;;;;;;;;;;5084594;28;20583;-57
2021/12/20 13:02:10;;;;;;;7.20;2.77;;;;;;;;;;5090541;28;20190;-57
2021/12/20 13:04:52;;;;;;;4.70;2.43;;;;;;;;;;5071952;28;20187;-57
2021/12/20 13:07:22;;;;;;;5.90;2.47;;;;;;;;;;5072702;28;20548;-57
2021/12/20 13:09:49;;;;;;;5.93;2.77;;;;;;;;;;5073316;28;20191;-58
2021/12/20 13:15:06;;;;;;;7.23;2.33;;;;;;;;;;5080492;28;20172;-58
2021/12/20 13:17:35;;;;;;;7.13;2.07;;;;;;;;;;5062235;28;20176;-57
2021/12/20 13:20:21;;;;;;;5.73;2.57;;;;;;;;;;5070760;28;20199;-58
2021/12/20 13:22:59;;;;;;;3.80;1.73;;;;;;;;;;5071381;28;20179;-57
2021/12/20 13:25:32;;;;;;;6.73;2.60;;;;;;;;;;5090631;28;20277;-57
2021/12/20 13:27:59;;;;;;;4.77;1.83;;;;;;;;;;5071952;28;20187;-57
2021/12/20 13:30:29;;;;;;;4.13;1.80;;;;;;;;;;5083685;28;20556;-58
2021/12/20 13:32:58;;;;;;;2.23;1.50;;;;;;;;;;5079509;28;20274;-57
2021/12/20 13:35:25;;;;;;;3.80;2.13;;;;;;;;;;5072748;28;20179;-57
2021/12/20 13:37:52;;;;;;;3.23;2.13;;;;;;;;;;5072056;28;20251;-58
2021/12/20 13:40:18;;;;;;;7.40;2.37;;;;;;;;;;5069663;28;20701;-57
2021/12/20 13:42:52;;;;;;;5.33;1.70;;;;;;;;;;5071962;28;20535;-58
2021/12/20 13:45:18;;;;;;;4.03;2.10;;;;;;;;;;5090168;28;20222;-57
2021/12/20 13:47:45;;;;;;;5.33;1.63;;;;;;;;;;5069263;28;20207;-57
2021/12/20 13:50:15;;;;;;;4.33;2.17;;;;;;;;;;5055575;28;20704;-58
2021/12/20 13:52:45;;;;;;;3.77;1.60;;;;;;;;;;5057046;28;20442;-58
2021/12/20 13:55:11;;;;;;;4.53;2.20;;;;;;;;;;5050711;28;20189;-57
2021/12/20 13:57:38;;;;;;;4.00;1.53;;;;;;;;;;5052049;28;20654;-57
2021/12/20 14:00:06;;;;;;;4.87;1.77;;;;;;;;;;5050861;28;20176;-57
2021/12/20 14:02:37;;;;;;;4.97;2.07;;;;;;;;;;5050164;28;20187;-58
2021/12/20 14:05:17;;;;;;;1.87;1.27;;;;;;;;;;5050139;28;20188;-57
2021/12/20 14:07:45;;;;;;;3.80;2.00;;;;;;;;;;5050641;28;20271;-57
2021/12/20 14:10:16;;;;;;;4.50;1.60;;;;;;;;;;5051780;28;20185;-57
2021/12/20 14:12:44;;;;;;;2.73;1.60;;;;;;;;;;5051743;28;20239;-57
2021/12/20 14:15:16;;;;;;;2.43;1.40;;;;;;;;;;5068247;28;20180;-57
2021/12/20 14:17:54;;;;;;;3.53;1.30;;;;;;;;;;5073359;28;20199;-57
2021/12/20 14:20:21;;;;;;;2.70;1.50;;;;;;;;;;5068634;28;20298;-57
2021/12/20 14:23:00;;;;;;;2.10;1.40;;;;;;;;;;5073587;28;20187;-57
2021/12/20 14:25:35;;;;;;;4.00;1.40;;;;;;;;;;5064824;28;20318;-57
2021/12/20 14:28:04;;;;;;;2.40;1.43;;;;;;;;;;5045461;28;20184;-57
2021/12/20 14:30:30;;;;;;;3.97;1.43;;;;;;;;;;5050393;28;20184;-57
2021/12/20 14:32:57;;;;;;;1.47;1.27;;;;;;;;;;5053562;28;20237;-57
2021/12/20 14:35:23;;;;;;;3.03;1.47;;;;;;;;;;5047672;28;20188;-57
2021/12/20 14:37:51;;;;;;;4.00;1.50;;;;;;;;;;5068849;28;20169;-57
2021/12/20 14:40:35;;;;;;;2.67;1.23;;;;;;;;;;5069796;28;20172;-57
2021/12/20 14:43:07;;;;;;;5.70;2.53;;;;;;;;;;5050692;28;20176;-57
2021/12/20 14:45:33;;;;;;;2.00;1.27;;;;;;;;;;5042169;28;20200;-57
2021/12/20 14:48:16;;;;;;;2.07;1.27;;;;;;;;;;5065504;28;20706;-57
2021/12/20 14:50:46;;;;;;;2.07;1.30;;;;;;;;;;5066868;28;20228;-57
2021/12/20 14:53:17;;;;;;;2.13;1.20;;;;;;;;;;5050755;28;20184;-57
2021/12/20 14:55:48;;;;;;;2.73;1.37;;;;;;;;;;5049218;28;20180;-57
2021/12/20 14:58:15;;;;;;;3.17;1.43;;;;;;;;;;5050005;28;20177;-57
2021/12/20 15:00:44;;;;;;;3.77;1.40;;;;;;;;;;5065832;28;20881;-57
2021/12/20 15:03:11;;;;;;;2.93;2.40;;;;;;;;;;5067849;28;20195;-59
2021/12/20 15:05:38;;;;;;;4.37;1.43;;;;;;;;;;5075736;28;20651;-57
2021/12/20 15:08:04;;;;;;;5.20;1.70;;;;;;;;;;5031383;28;20180;-57